Time;durP1;ratioP1;P1;durP2;ratioP2;P2;SDS_P1;SDS_P2;PMS_P1;PMS_P2;Temp;Humidity;BMP_temperature;BMP_pressure;BME280_temperature;BME280_humidity;BME280_pressure;Samples;Min_cycle;Max_cycle;Signal;HPM_P1;HPM_P2
2021/11/04 00:01:28;;;;;;;15.82;5.25;;;;;;;;;;5051577;28;20036;-95
2021/11/04 00:03:55;;;;;;;13.73;6.00;;;;;;;;;;5060157;28;20033;-93
2021/11/04 00:06:25;;;;;;;12.55;6.15;;;;;;;;;;5065968;28;20033;-93
2021/11/04 00:09:14;;;;;;;10.57;6.50;;;;;;;;;;5057866;28;20028;-96
2021/11/04 00:11:42;;;;;;;12.73;6.35;;;;;;;;;;5055158;28;20211;-93
2021/11/04 00:14:10;;;;;;;12.73;6.47;;;;;;;;;;5057930;28;20029;-95
2021/11/04 00:16:39;;;;;;;13.63;6.88;;;;;;;;;;5056291;28;20021;-94
2021/11/04 00:19:05;;;;;;;13.07;6.95;;;;;;;;;;5053383;28;20125;-93
2021/11/04 00:21:33;;;;;;;12.90;7.60;;;;;;;;;;5054951;28;20025;-95
2021/11/04 00:24:01;;;;;;;15.95;8.23;;;;;;;;;;5054885;28;20063;-94
2021/11/04 00:26:27;;;;;;;14.00;8.05;;;;;;;;;;5055424;28;20045;-93
2021/11/04 00:28:56;;;;;;;13.70;7.97;;;;;;;;;;5047097;28;20029;-93
2021/11/04 00:31:22;;;;;;;14.50;8.10;;;;;;;;;;5055829;28;20025;-94
2021/11/04 00:33:51;;;;;;;14.95;7.45;;;;;;;;;;5063775;28;20057;-94
2021/11/04 00:36:18;;;;;;;13.93;5.80;;;;;;;;;;5055646;28;20037;-94
2021/11/04 00:38:53;;;;;;;8.80;4.45;;;;;;;;;;5055530;28;20087;-95
2021/11/04 00:41:19;;;;;;;9.00;4.30;;;;;;;;;;5053718;28;20090;-95
2021/11/04 00:43:45;;;;;;;9.25;4.15;;;;;;;;;;5053144;28;20036;-96
2021/11/04 00:46:28;;;;;;;8.63;4.30;;;;;;;;;;5053385;28;20041;-93
2021/11/04 00:48:54;;;;;;;10.05;4.05;;;;;;;;;;5052427;28;20029;-92
2021/11/04 00:51:24;;;;;;;7.55;4.45;;;;;;;;;;5053956;28;20033;-94
2021/11/04 00:53:56;;;;;;;7.90;4.50;;;;;;;;;;5055748;28;20111;-96
2021/11/04 00:56:22;;;;;;;10.40;4.22;;;;;;;;;;5052947;28;20033;-94
2021/11/04 00:58:51;;;;;;;8.68;4.20;;;;;;;;;;5051396;28;20029;-96
2021/11/04 01:04:33;;;;;;;8.90;4.18;;;;;;;;;;5053136;28;20021;-95
2021/11/04 01:07:05;;;;;;;10.43;4.30;;;;;;;;;;5038349;28;20090;-94
2021/11/04 01:09:41;;;;;;;10.63;4.43;;;;;;;;;;5050588;28;20028;-95
2021/11/04 01:12:24;;;;;;;10.63;4.45;;;;;;;;;;5051521;28;20044;-94
2021/11/04 01:14:56;;;;;;;8.00;4.10;;;;;;;;;;5042196;28;20472;-96
2021/11/04 01:17:25;;;;;;;10.57;4.30;;;;;;;;;;5041779;28;20528;-94
2021/11/04 01:20:00;;;;;;;10.20;4.30;;;;;;;;;;5058128;28;20044;-95
2021/11/04 01:22:29;;;;;;;10.15;4.10;;;;;;;;;;5039697;28;20037;-96
2021/11/04 01:24:55;;;;;;;8.40;4.32;;;;;;;;;;5034233;28;20546;-95
2021/11/04 01:27:29;;;;;;;7.82;4.00;;;;;;;;;;5027219;28;20037;-93
2021/11/04 01:30:00;;;;;;;11.10;4.57;;;;;;;;;;5025583;28;20041;-94
2021/11/04 01:32:32;;;;;;;7.75;4.40;;;;;;;;;;5035273;28;20379;-94
2021/11/04 01:35:03;;;;;;;12.50;4.15;;;;;;;;;;5036940;28;20033;-95
2021/11/04 01:37:52;;;;;;;8.23;4.45;;;;;;;;;;5027026;28;20068;-96
2021/11/04 01:40:21;;;;;;;9.35;4.35;;;;;;;;;;4959949;28;20043;-93
2021/11/04 01:42:56;;;;;;;9.50;4.40;;;;;;;;;;4959115;28;20058;-94
2021/11/04 01:45:42;;;;;;;10.13;4.63;;;;;;;;;;4973306;28;20481;-94
2021/11/04 01:48:08;;;;;;;10.90;4.50;;;;;;;;;;4968009;28;20042;-95
2021/11/04 01:50:35;;;;;;;8.75;4.50;;;;;;;;;;4977326;28;20177;-96
2021/11/04 01:53:02;;;;;;;8.13;4.57;;;;;;;;;;4967143;28;20031;-94
2021/11/04 01:55:29;;;;;;;9.75;4.47;;;;;;;;;;4991922;28;20031;-96
2021/11/04 01:57:56;;;;;;;9.32;4.82;;;;;;;;;;4981061;28;20085;-95
2021/11/04 02:00:31;;;;;;;8.07;4.35;;;;;;;;;;4979637;28;20031;-93
2021/11/04 02:03:03;;;;;;;7.53;4.57;;;;;;;;;;4997569;28;20061;-96
2021/11/04 02:05:42;;;;;;;9.20;4.45;;;;;;;;;;4980458;28;20489;-96
2021/11/04 02:08:28;;;;;;;10.05;4.85;;;;;;;;;;4988010;28;20041;-95
2021/11/04 02:11:05;;;;;;;14.40;5.32;;;;;;;;;;5030063;28;20033;-92
2021/11/04 02:13:35;;;;;;;12.90;6.40;;;;;;;;;;5023360;28;20045;-94
2021/11/04 02:16:02;;;;;;;9.18;5.40;;;;;;;;;;5022437;28;20083;-95
2021/11/04 02:18:30;;;;;;;11.07;5.55;;;;;;;;;;5056138;28;20109;-94
2021/11/04 02:21:12;;;;;;;8.30;5.07;;;;;;;;;;5059509;28;20033;-95
2021/11/04 02:23:41;;;;;;;10.45;4.53;;;;;;;;;;5051390;28;20086;-91
2021/11/04 02:26:22;;;;;;;11.50;4.60;;;;;;;;;;5055219;28;20609;-94
2021/11/04 02:28:49;;;;;;;9.88;4.20;;;;;;;;;;5053641;28;20398;-95
2021/11/04 02:31:16;;;;;;;7.10;4.05;;;;;;;;;;5054740;28;20129;-95
2021/11/04 02:34:04;;;;;;;8.20;3.92;;;;;;;;;;5055922;28;20028;-93
2021/11/04 02:36:43;;;;;;;;;;;;;;;;;;;;;
2021/11/04 02:39:15;;;;;;;7.35;3.80;;;;;;;;;;5050014;28;20112;-96
2021/11/04 02:41:54;;;;;;;8.57;4.28;;;;;;;;;;5054845;28;20028;-95
2021/11/04 02:44:25;;;;;;;9.68;3.83;;;;;;;;;;5055057;28;20029;-94
2021/11/04 02:46:57;;;;;;;8.02;4.32;;;;;;;;;;5054215;28;20516;-93
2021/11/04 02:49:41;;;;;;;7.63;4.15;;;;;;;;;;5041981;28;20040;-96
2021/11/04 02:52:25;;;;;;;10.25;4.75;;;;;;;;;;5054655;28;20024;-95
2021/11/04 02:54:59;;;;;;;6.57;3.90;;;;;;;;;;5071634;28;20033;-95
2021/11/04 03:00:28;;;;;;;8.63;3.95;;;;;;;;;;5036429;28;20026;-95
2021/11/04 03:03:12;;;;;;;9.05;4.05;;;;;;;;;;5016253;28;20474;-95
2021/11/04 03:08:48;;;;;;;10.43;4.00;;;;;;;;;;5026343;28;20028;-95
2021/11/04 03:11:37;;;;;;;12.65;4.53;;;;;;;;;;5017848;28;20025;-94
2021/11/04 03:14:04;;;;;;;8.95;4.00;;;;;;;;;;5033453;28;20030;-96
2021/11/04 03:16:50;;;;;;;8.02;3.80;;;;;;;;;;5017840;28;20463;-96
2021/11/04 03:19:18;;;;;;;11.40;4.00;;;;;;;;;;5016004;28;20037;-95
2021/11/04 03:21:53;;;;;;;9.65;4.15;;;;;;;;;;5015431;28;20041;-95
2021/11/04 03:24:23;;;;;;;8.88;4.03;;;;;;;;;;5015485;28;20120;-96
2021/11/04 03:26:55;;;;;;;7.47;4.00;;;;;;;;;;5015425;28;20128;-93
2021/11/04 03:29:25;;;;;;;10.73;4.32;;;;;;;;;;5015225;28;20036;-94
2021/11/04 03:35:14;;;;;;;9.57;4.00;;;;;;;;;;4973151;28;20130;-94
2021/11/04 03:37:50;;;;;;;6.57;3.92;;;;;;;;;;4968412;28;20042;-91
2021/11/04 03:40:17;;;;;;;11.00;3.85;;;;;;;;;;4979510;28;20038;-96
2021/11/04 03:42:43;;;;;;;5.55;3.53;;;;;;;;;;4977682;28;20026;-96
2021/11/04 03:45:21;;;;;;;10.82;3.83;;;;;;;;;;5006406;28;20133;-92
2021/11/04 03:47:51;;;;;;;7.57;3.83;;;;;;;;;;4976518;28;20046;-96
2021/11/04 03:50:27;;;;;;;9.93;4.32;;;;;;;;;;4977198;28;20038;-93
2021/11/04 03:52:54;;;;;;;11.40;4.18;;;;;;;;;;4976730;28;20042;-94
2021/11/04 03:55:22;;;;;;;8.05;3.92;;;;;;;;;;4977547;28;20129;-95
2021/11/04 03:57:51;;;;;;;9.82;3.72;;;;;;;;;;4994735;28;20109;-92
2021/11/04 04:00:41;;;;;;;13.32;4.38;;;;;;;;;;4991996;28;20093;-93
2021/11/04 04:03:12;;;;;;;8.93;3.92;;;;;;;;;;4981641;28;20066;-94
2021/11/04 04:05:41;;;;;;;7.40;4.20;;;;;;;;;;4992463;28;20039;-95
2021/11/04 04:08:14;;;;;;;8.15;4.03;;;;;;;;;;4979066;28;20038;-95
2021/11/04 04:10:40;;;;;;;9.13;3.80;;;;;;;;;;4992482;28;20052;-95
2021/11/04 04:13:18;;;;;;;6.68;3.90;;;;;;;;;;5055737;28;20036;-93
2021/11/04 04:16:19;;;;;;;7.97;3.97;;;;;;;;;;5073597;28;20108;-96
2021/11/04 04:18:48;;;;;;;15.32;4.10;;;;;;;;;;5015239;28;20045;-93
2021/11/04 04:21:34;;;;;;;11.27;4.55;;;;;;;;;;5015599;28;20132;-95
2021/11/04 04:24:07;;;;;;;10.90;3.88;;;;;;;;;;5028526;28;20515;-94
2021/11/04 04:26:36;;;;;;;11.82;4.03;;;;;;;;;;5015365;28;20054;-95
2021/11/04 04:29:23;;;;;;;8.63;4.25;;;;;;;;;;5031295;28;20085;-96
2021/11/04 04:32:12;;;;;;;8.93;3.95;;;;;;;;;;5024377;28;20048;-94
2021/11/04 04:35:01;;;;;;;9.90;4.03;;;;;;;;;;5034803;28;20048;-94
2021/11/04 04:37:30;;;;;;;8.82;3.72;;;;;;;;;;5019838;28;20065;-96
2021/11/04 04:40:02;;;;;;;10.65;4.10;;;;;;;;;;5032530;28;20033;-94
2021/11/04 04:42:28;;;;;;;10.15;4.05;;;;;;;;;;5031257;28;20040;-94
2021/11/04 04:47:38;;;;;;;10.70;4.72;;;;;;;;;;5019685;28;20048;-92
2021/11/04 04:50:28;;;;;;;14.43;3.92;;;;;;;;;;5032049;28;20063;-90
2021/11/04 04:53:10;;;;;;;;;;;;;;;;;;;;;
2021/11/04 04:55:55;;;;;;;11.57;3.72;;;;;;;;;;5050615;28;20029;-96
2021/11/04 04:58:21;;;;;;;7.13;3.53;;;;;;;;;;5050785;28;20025;-74
2021/11/04 05:00:47;;;;;;;8.15;3.67;;;;;;;;;;5062718;28;20433;-75
2021/11/04 05:03:13;;;;;;;8.60;3.92;;;;;;;;;;5055139;28;20475;-77
2021/11/04 05:05:40;;;;;;;10.77;3.80;;;;;;;;;;5057136;28;20029;-77
2021/11/04 05:08:06;;;;;;;15.15;4.80;;;;;;;;;;5058001;28;20028;-81
2021/11/04 05:10:32;;;;;;;8.80;4.03;;;;;;;;;;5057191;28;20112;-84
2021/11/04 05:12:58;;;;;;;13.55;3.92;;;;;;;;;;5056072;28;20032;-82
2021/11/04 05:15:24;;;;;;;14.02;4.32;;;;;;;;;;5055073;28;20044;-74
2021/11/04 05:17:50;;;;;;;10.25;4.82;;;;;;;;;;5054249;28;20024;-75
2021/11/04 05:20:16;;;;;;;10.27;4.95;;;;;;;;;;5055115;28;20017;-76
2021/11/04 05:22:43;;;;;;;12.00;3.75;;;;;;;;;;5055141;28;20383;-74
2021/11/04 05:25:09;;;;;;;11.27;4.05;;;;;;;;;;5052687;28;20506;-75
2021/11/04 05:27:38;;;;;;;15.82;4.13;;;;;;;;;;5054991;28;20028;-73
2021/11/04 05:30:05;;;;;;;8.15;3.75;;;;;;;;;;5053600;28;20029;-75
2021/11/04 05:32:31;;;;;;;9.40;3.90;;;;;;;;;;5053965;28;20543;-77
2021/11/04 05:35:00;;;;;;;12.43;3.47;;;;;;;;;;5053349;28;20029;-82
2021/11/04 05:37:26;;;;;;;10.95;3.53;;;;;;;;;;5059182;28;20124;-86
2021/11/04 05:39:52;;;;;;;7.88;3.70;;;;;;;;;;5055554;28;20048;-91
2021/11/04 05:42:18;;;;;;;12.80;4.35;;;;;;;;;;5055506;28;20021;-85
2021/11/04 05:44:44;;;;;;;11.32;3.67;;;;;;;;;;5051721;28;20028;-80
2021/11/04 05:47:10;;;;;;;15.90;3.55;;;;;;;;;;5061644;28;20055;-83
2021/11/04 05:49:36;;;;;;;11.15;3.88;;;;;;;;;;5052348;28;20040;-81
2021/11/04 05:52:02;;;;;;;13.73;3.83;;;;;;;;;;5059186;28;20098;-78
2021/11/04 05:54:29;;;;;;;11.77;3.83;;;;;;;;;;5059250;28;20028;-77
2021/11/04 05:56:55;;;;;;;18.70;4.05;;;;;;;;;;5060344;28;20033;-77
2021/11/04 05:59:21;;;;;;;16.25;3.92;;;;;;;;;;5057546;28;20039;-89
2021/11/04 06:01:47;;;;;;;14.07;5.40;;;;;;;;;;5052591;28;20047;-86
2021/11/04 06:04:13;;;;;;;14.10;4.35;;;;;;;;;;5054607;28;20068;-89
2021/11/04 06:06:39;;;;;;;14.95;4.50;;;;;;;;;;5049567;28;20505;-89
2021/11/04 06:09:05;;;;;;;13.25;3.83;;;;;;;;;;5051237;28;20482;-84
2021/11/04 06:11:31;;;;;;;11.88;3.85;;;;;;;;;;5047476;28;20032;-73
2021/11/04 06:13:57;;;;;;;11.75;4.15;;;;;;;;;;5058153;28;20032;-79
2021/11/04 06:16:24;;;;;;;20.73;4.47;;;;;;;;;;5053997;28;20175;-80
2021/11/04 06:18:52;;;;;;;17.45;4.18;;;;;;;;;;5055988;28;20017;-74
2021/11/04 06:21:18;;;;;;;19.42;5.53;;;;;;;;;;5053488;28;20386;-77
2021/11/04 06:23:44;;;;;;;12.10;4.45;;;;;;;;;;5051195;28;20017;-75
2021/11/04 06:26:10;;;;;;;8.65;3.70;;;;;;;;;;5055021;28;20461;-75
2021/11/04 06:28:37;;;;;;;17.95;4.78;;;;;;;;;;5053751;28;20027;-75
2021/11/04 06:31:03;;;;;;;14.18;4.40;;;;;;;;;;5053804;28;20075;-75
2021/11/04 06:33:29;;;;;;;13.85;4.80;;;;;;;;;;5052589;28;20072;-76
2021/11/04 06:35:57;;;;;;;15.55;4.93;;;;;;;;;;5053657;28;20100;-76
2021/11/04 06:38:24;;;;;;;14.15;3.92;;;;;;;;;;5053580;28;20043;-75
2021/11/04 06:40:50;;;;;;;12.80;3.97;;;;;;;;;;5053502;28;20033;-77
2021/11/04 06:43:17;;;;;;;13.75;4.18;;;;;;;;;;5054076;28;20028;-81
2021/11/04 06:45:47;;;;;;;24.65;11.05;;;;;;;;;;5056288;28;20036;-75
2021/11/04 06:48:17;;;;;;;13.13;3.53;;;;;;;;;;5053210;28;20076;-77
2021/11/04 06:50:44;;;;;;;16.98;5.10;;;;;;;;;;5053071;28;20036;-78
2021/11/04 06:53:11;;;;;;;14.63;4.65;;;;;;;;;;5053454;28;20147;-88
2021/11/04 06:55:43;;;;;;;15.82;4.35;;;;;;;;;;5055550;28;20108;-85
2021/11/04 06:58:17;;;;;;;17.60;4.60;;;;;;;;;;5051139;28;20047;-87
2021/11/04 07:00:45;;;;;;;13.93;4.40;;;;;;;;;;5053474;28;20163;-75
2021/11/04 07:03:13;;;;;;;11.45;3.95;;;;;;;;;;5055266;28;20069;-75
2021/11/04 07:05:40;;;;;;;15.55;4.88;;;;;;;;;;5053854;28;20025;-81
2021/11/04 07:08:06;;;;;;;11.63;4.63;;;;;;;;;;5055892;28;20401;-80
2021/11/04 07:10:34;;;;;;;13.55;4.68;;;;;;;;;;5056627;28;20021;-78
2021/11/04 07:13:00;;;;;;;13.35;4.28;;;;;;;;;;5054243;28;20029;-81
2021/11/04 07:15:26;;;;;;;15.68;4.57;;;;;;;;;;5059925;28;20152;-82
2021/11/04 07:17:52;;;;;;;15.20;4.55;;;;;;;;;;5059492;28;20478;-76
2021/11/04 07:20:20;;;;;;;14.73;4.80;;;;;;;;;;5050873;28;20150;-75
2021/11/04 07:22:54;;;;;;;16.15;4.53;;;;;;;;;;5050771;28;20139;-77
2021/11/04 07:25:21;;;;;;;18.35;5.75;;;;;;;;;;5037585;28;20160;-75
2021/11/04 07:27:59;;;;;;;15.13;4.90;;;;;;;;;;5051304;28;20116;-76
2021/11/04 07:30:25;;;;;;;16.50;4.72;;;;;;;;;;5050805;28;20037;-77
2021/11/04 07:32:58;;;;;;;12.07;4.30;;;;;;;;;;5048262;28;20029;-80
2021/11/04 07:35:29;;;;;;;17.50;6.80;;;;;;;;;;5051629;28;20438;-78
2021/11/04 07:37:55;;;;;;;14.85;4.55;;;;;;;;;;5051321;28;20060;-81
2021/11/04 07:40:22;;;;;;;18.70;8.98;;;;;;;;;;5050809;28;20246;-83
2021/11/04 07:42:48;;;;;;;14.20;4.43;;;;;;;;;;5054524;28;20056;-80
2021/11/04 07:45:15;;;;;;;17.92;4.43;;;;;;;;;;5050710;28;20032;-81
2021/11/04 07:47:42;;;;;;;12.05;4.70;;;;;;;;;;5058357;28;20045;-81
2021/11/04 07:50:09;;;;;;;14.38;4.43;;;;;;;;;;5051943;28;20048;-83
2021/11/04 07:52:35;;;;;;;16.45;3.95;;;;;;;;;;5052831;28;20083;-76
2021/11/04 07:55:02;;;;;;;19.35;5.00;;;;;;;;;;5054512;28;20537;-78
2021/11/04 07:57:28;;;;;;;13.90;4.38;;;;;;;;;;5052110;28;20017;-78
2021/11/04 07:59:54;;;;;;;15.98;5.55;;;;;;;;;;5053208;28;20029;-87
2021/11/04 08:02:21;;;;;;;14.70;4.50;;;;;;;;;;5052145;28;20060;-84
2021/11/04 08:04:47;;;;;;;14.95;4.97;;;;;;;;;;5040601;28;20076;-77
2021/11/04 08:07:13;;;;;;;18.95;4.72;;;;;;;;;;5050426;28;20044;-82
2021/11/04 08:09:39;;;;;;;20.52;5.15;;;;;;;;;;5050242;28;20051;-81
2021/11/04 08:12:05;;;;;;;14.75;4.47;;;;;;;;;;5050293;28;20394;-76
2021/11/04 08:14:31;;;;;;;16.73;5.22;;;;;;;;;;5055836;28;20386;-75
2021/11/04 08:16:57;;;;;;;13.93;4.38;;;;;;;;;;5052080;28;20027;-84
2021/11/04 08:19:23;;;;;;;14.85;4.15;;;;;;;;;;5049496;28;20022;-78
2021/11/04 08:21:49;;;;;;;10.45;3.95;;;;;;;;;;5049464;28;20028;-78
2021/11/04 08:24:15;;;;;;;11.98;3.88;;;;;;;;;;5046200;28;20516;-76
2021/11/04 08:26:41;;;;;;;16.75;4.35;;;;;;;;;;5048959;28;20055;-76
2021/11/04 08:29:07;;;;;;;13.93;3.90;;;;;;;;;;5051003;28;20025;-76
2021/11/04 08:31:33;;;;;;;16.35;4.32;;;;;;;;;;5039944;28;20028;-77
2021/11/04 08:34:00;;;;;;;13.20;3.90;;;;;;;;;;5056207;28;20032;-86
2021/11/04 08:36:26;;;;;;;14.35;4.57;;;;;;;;;;5054647;28;20136;-87
2021/11/04 08:38:52;;;;;;;17.38;5.65;;;;;;;;;;5053339;28;20556;-77
2021/11/04 08:41:18;;;;;;;17.92;4.97;;;;;;;;;;5055320;28;20389;-77
2021/11/04 08:43:44;;;;;;;11.15;3.92;;;;;;;;;;5055500;28;20067;-77
2021/11/04 08:46:10;;;;;;;16.90;4.43;;;;;;;;;;5055651;28;20040;-77
2021/11/04 08:48:37;;;;;;;14.60;4.28;;;;;;;;;;5054272;28;20474;-76
2021/11/04 08:51:03;;;;;;;20.42;5.90;;;;;;;;;;5055434;28;20067;-76
2021/11/04 08:53:29;;;;;;;18.13;5.15;;;;;;;;;;5054196;28;20023;-78
2021/11/04 08:55:56;;;;;;;17.27;5.07;;;;;;;;;;5053476;28;20054;-77
2021/11/04 08:58:22;;;;;;;14.43;4.50;;;;;;;;;;5054138;28;20021;-77
2021/11/04 09:00:48;;;;;;;19.13;7.10;;;;;;;;;;5055405;28;20071;-78
2021/11/04 09:03:16;;;;;;;16.52;7.95;;;;;;;;;;5055030;28;20017;-77
2021/11/04 09:05:44;;;;;;;17.45;4.38;;;;;;;;;;5053941;28;20091;-78
2021/11/04 09:08:10;;;;;;;13.35;6.13;;;;;;;;;;5054996;28;20021;-78
2021/11/04 09:10:36;;;;;;;14.98;4.80;;;;;;;;;;5054980;28;20398;-77
2021/11/04 09:13:02;;;;;;;19.58;5.20;;;;;;;;;;5054415;28;20029;-78
2021/11/04 09:15:29;;;;;;;17.38;4.68;;;;;;;;;;5055304;28;20459;-78
2021/11/04 09:17:55;;;;;;;15.25;4.32;;;;;;;;;;5054985;28;20486;-78
2021/11/04 09:20:21;;;;;;;18.33;6.05;;;;;;;;;;5063019;28;20078;-77
2021/11/04 09:22:50;;;;;;;16.23;6.75;;;;;;;;;;5056115;28;20041;-77
2021/11/04 09:25:20;;;;;;;13.05;4.63;;;;;;;;;;5049584;28;20056;-79
2021/11/04 09:27:47;;;;;;;19.65;5.38;;;;;;;;;;5062348;28;20100;-81
2021/11/04 09:30:13;;;;;;;15.45;4.22;;;;;;;;;;5057515;28;20031;-88
2021/11/04 09:32:44;;;;;;;16.65;6.95;;;;;;;;;;5058841;28;20471;-90
2021/11/04 09:35:10;;;;;;;18.65;7.45;;;;;;;;;;5052585;28;20029;-79
2021/11/04 09:37:37;;;;;;;17.38;7.35;;;;;;;;;;5053416;28;20021;-79
2021/11/04 09:40:04;;;;;;;16.27;7.65;;;;;;;;;;5054120;28;20028;-80
2021/11/04 09:42:30;;;;;;;15.18;4.97;;;;;;;;;;5052692;28;20498;-77
2021/11/04 09:44:56;;;;;;;10.88;3.38;;;;;;;;;;5052145;28;20056;-81
2021/11/04 09:47:24;;;;;;;13.43;3.97;;;;;;;;;;5051614;28;20104;-76
2021/11/04 09:49:51;;;;;;;14.40;3.88;;;;;;;;;;5054520;28;20508;-79
2021/11/04 09:52:21;;;;;;;13.27;4.00;;;;;;;;;;5052615;28;20040;-78
2021/11/04 09:54:54;;;;;;;10.80;3.90;;;;;;;;;;5054455;28;20025;-83
2021/11/04 09:57:20;;;;;;;12.75;4.30;;;;;;;;;;5052470;28;20033;-76
2021/11/04 09:59:47;;;;;;;15.55;4.20;;;;;;;;;;5053005;28;20037;-78
2021/11/04 10:02:20;;;;;;;11.38;3.35;;;;;;;;;;5053524;28;20025;-78
2021/11/04 10:04:46;;;;;;;14.45;3.95;;;;;;;;;;5053220;28;20115;-79
2021/11/04 10:07:13;;;;;;;13.63;4.28;;;;;;;;;;5055725;28;20040;-77
2021/11/04 10:09:39;;;;;;;21.05;4.88;;;;;;;;;;5057709;28;20044;-78
2021/11/04 10:12:06;;;;;;;13.05;3.67;;;;;;;;;;5053878;28;20065;-78
2021/11/04 10:14:34;;;;;;;14.63;3.60;;;;;;;;;;5057320;28;20048;-80
2021/11/04 10:17:00;;;;;;;11.98;4.30;;;;;;;;;;5050482;28;20029;-80
2021/11/04 10:19:38;;;;;;;16.45;4.68;;;;;;;;;;5047493;28;20385;-85
2021/11/04 10:22:05;;;;;;;11.52;4.13;;;;;;;;;;5047931;28;20037;-88
2021/11/04 10:24:31;;;;;;;13.30;4.43;;;;;;;;;;5049295;28;20383;-83
2021/11/04 10:26:58;;;;;;;20.67;4.40;;;;;;;;;;5048300;28;20068;-84
2021/11/04 10:29:25;;;;;;;24.88;6.10;;;;;;;;;;5053809;28;20036;-83
2021/11/04 10:32:01;;;;;;;14.18;8.77;;;;;;;;;;5052611;28;20150;-86
2021/11/04 10:34:29;;;;;;;15.30;5.18;;;;;;;;;;5054187;28;20047;-84
2021/11/04 10:37:11;;;;;;;20.02;5.40;;;;;;;;;;5053304;28;20461;-82
2021/11/04 10:39:40;;;;;;;16.27;4.95;;;;;;;;;;5051146;28;20063;-83
2021/11/04 10:42:07;;;;;;;12.63;4.07;;;;;;;;;;5053252;28;20028;-84
2021/11/04 10:44:33;;;;;;;13.25;4.40;;;;;;;;;;5052558;28;20025;-82
2021/11/04 10:46:59;;;;;;;13.35;4.22;;;;;;;;;;5052535;28;20036;-83
2021/11/04 10:49:26;;;;;;;16.45;4.13;;;;;;;;;;5052204;28;20116;-82
2021/11/04 10:51:58;;;;;;;15.30;4.55;;;;;;;;;;5052567;28;20071;-81
2021/11/04 10:54:24;;;;;;;15.63;4.47;;;;;;;;;;5043914;28;20020;-80
2021/11/04 10:56:51;;;;;;;13.32;4.20;;;;;;;;;;5051469;28;20124;-79
2021/11/04 10:59:18;;;;;;;15.07;4.32;;;;;;;;;;5051215;28;20052;-82
2021/11/04 11:01:48;;;;;;;14.00;3.95;;;;;;;;;;5049680;28;20082;-78
2021/11/04 11:04:15;;;;;;;11.00;4.10;;;;;;;;;;5049426;28;20036;-85
2021/11/04 11:06:46;;;;;;;17.20;4.35;;;;;;;;;;5046600;28;20063;-81
2021/11/04 11:09:16;;;;;;;13.95;4.22;;;;;;;;;;5051851;28;20040;-81
2021/11/04 11:11:44;;;;;;;12.95;4.43;;;;;;;;;;5050770;28;20032;-86
2021/11/04 11:14:11;;;;;;;12.35;3.88;;;;;;;;;;5056741;28;20028;-85
2021/11/04 11:16:38;;;;;;;12.82;4.00;;;;;;;;;;5049552;28;20029;-80
2021/11/04 11:19:04;;;;;;;11.00;4.05;;;;;;;;;;5052706;28;20033;-85
2021/11/04 11:21:39;;;;;;;15.02;5.05;;;;;;;;;;5053711;28;20033;-86
2021/11/04 11:24:05;;;;;;;13.07;4.57;;;;;;;;;;5048237;28;20032;-83
2021/11/04 11:26:32;;;;;;;17.92;4.70;;;;;;;;;;5052757;28;20132;-85
2021/11/04 11:28:59;;;;;;;17.13;4.30;;;;;;;;;;5049689;28;20067;-78
2021/11/04 11:31:26;;;;;;;11.77;4.32;;;;;;;;;;5048968;28;20037;-80
2021/11/04 11:33:56;;;;;;;21.75;5.57;;;;;;;;;;5050705;28;20037;-81
2021/11/04 11:36:23;;;;;;;15.07;5.07;;;;;;;;;;5052384;28;20047;-76
2021/11/04 11:39:14;;;;;;;13.02;5.18;;;;;;;;;;5052750;28;20028;-83
2021/11/04 11:42:04;;;;;;;15.57;5.05;;;;;;;;;;5053609;28;21642;-85
2021/11/04 11:44:34;;;;;;;13.30;4.75;;;;;;;;;;5048272;28;20033;-81
2021/11/04 11:47:02;;;;;;;23.52;5.30;;;;;;;;;;5049228;28;20037;-86
2021/11/04 11:49:29;;;;;;;17.65;4.72;;;;;;;;;;5056332;28;20017;-80
2021/11/04 11:51:57;;;;;;;14.75;4.57;;;;;;;;;;5050614;28;20145;-84
2021/11/04 11:54:23;;;;;;;17.05;4.60;;;;;;;;;;5054963;28;20147;-80
2021/11/04 11:57:22;;;;;;;14.18;4.65;;;;;;;;;;5057120;28;20033;-80
2021/11/04 11:59:52;;;;;;;15.70;4.45;;;;;;;;;;5027961;28;20042;-81
2021/11/04 12:02:33;;;;;;;18.90;4.50;;;;;;;;;;5025248;28;20045;-83
2021/11/04 12:05:18;;;;;;;14.90;4.65;;;;;;;;;;5006603;28;20588;-79
2021/11/04 12:07:44;;;;;;;15.02;4.40;;;;;;;;;;5023179;28;20042;-77
2021/11/04 12:10:29;;;;;;;17.70;5.72;;;;;;;;;;5035084;28;20060;-78
2021/11/04 12:12:55;;;;;;;14.43;5.05;;;;;;;;;;5028457;28;20442;-78
2021/11/04 12:15:21;;;;;;;19.15;4.80;;;;;;;;;;5031484;28;20060;-78
2021/11/04 12:18:05;;;;;;;17.85;5.03;;;;;;;;;;5025669;28;20032;-80
2021/11/04 12:20:31;;;;;;;15.55;5.22;;;;;;;;;;5027449;28;20033;-76
2021/11/04 12:23:03;;;;;;;25.42;10.15;;;;;;;;;;5026518;28;20046;-77
2021/11/04 12:25:29;;;;;;;24.70;6.72;;;;;;;;;;5027905;28;20411;-77
2021/11/04 12:28:00;;;;;;;19.42;10.05;;;;;;;;;;5035480;28;20436;-77
2021/11/04 12:30:28;;;;;;;18.63;7.28;;;;;;;;;;5039136;28;20114;-78
2021/11/04 12:33:08;;;;;;;18.05;6.43;;;;;;;;;;5031645;28;20094;-75
2021/11/04 12:35:52;;;;;;;14.48;6.50;;;;;;;;;;5042175;28;20032;-75
2021/11/04 12:38:41;;;;;;;27.55;8.10;;;;;;;;;;5040748;28;20033;-73
2021/11/04 12:41:11;;;;;;;24.75;9.10;;;;;;;;;;5051132;28;20036;-73
2021/11/04 12:43:39;;;;;;;22.95;8.50;;;;;;;;;;5048630;28;20458;-84
2021/11/04 12:46:27;;;;;;;24.70;10.27;;;;;;;;;;5032846;28;20029;-80
2021/11/04 12:48:55;;;;;;;21.25;9.52;;;;;;;;;;5048780;28;20616;-78
2021/11/04 12:51:23;;;;;;;27.80;9.18;;;;;;;;;;5031294;28;20118;-81
2021/11/04 12:53:59;;;;;;;23.88;8.27;;;;;;;;;;5046455;28;20123;-76
2021/11/04 12:56:43;;;;;;;24.73;7.57;;;;;;;;;;5045368;28;20036;-77
2021/11/04 12:59:11;;;;;;;18.58;8.13;;;;;;;;;;5049321;28;20071;-78
2021/11/04 13:01:58;;;;;;;25.52;9.13;;;;;;;;;;5056259;28;20123;-77
2021/11/04 13:04:25;;;;;;;29.38;10.07;;;;;;;;;;5056669;28;20108;-79
2021/11/04 13:06:52;;;;;;;23.75;8.25;;;;;;;;;;5052134;28;20044;-80
2021/11/04 13:09:18;;;;;;;20.42;7.20;;;;;;;;;;5032845;28;20021;-78
2021/11/04 13:12:00;;;;;;;16.70;5.85;;;;;;;;;;5050167;28;20079;-80
2021/11/04 13:14:26;;;;;;;24.20;6.60;;;;;;;;;;5047824;28;20025;-75
2021/11/04 13:16:52;;;;;;;26.42;7.13;;;;;;;;;;5056643;28;20029;-81
2021/11/04 13:19:25;;;;;;;22.40;6.20;;;;;;;;;;5052923;28;20033;-87
2021/11/04 13:21:51;;;;;;;25.00;7.47;;;;;;;;;;5054498;28;20033;-78
2021/11/04 13:24:17;;;;;;;20.60;5.95;;;;;;;;;;5054750;28;20055;-76
2021/11/04 13:26:44;;;;;;;20.88;6.47;;;;;;;;;;5057315;28;20505;-84
2021/11/04 13:29:10;;;;;;;20.58;6.88;;;;;;;;;;5052027;28;20024;-82
2021/11/04 13:31:37;;;;;;;20.75;6.90;;;;;;;;;;5050181;28;20105;-75
2021/11/04 13:34:10;;;;;;;21.52;10.18;;;;;;;;;;5053891;28;20030;-75
2021/11/04 13:36:36;;;;;;;30.88;17.92;;;;;;;;;;5053829;28;20720;-76
2021/11/04 13:39:07;;;;;;;27.42;12.18;;;;;;;;;;5053542;28;20096;-76
2021/11/04 13:41:36;;;;;;;27.63;13.38;;;;;;;;;;5054520;28;20094;-76
2021/11/04 13:44:04;;;;;;;42.17;22.90;;;;;;;;;;5054073;28;20048;-76
2021/11/04 13:46:30;;;;;;;21.15;7.80;;;;;;;;;;5054872;28;20464;-76
2021/11/04 13:48:57;;;;;;;25.95;7.63;;;;;;;;;;5054951;28;20025;-77
2021/11/04 13:51:37;;;;;;;24.45;7.15;;;;;;;;;;5054570;28;20104;-76
2021/11/04 13:54:06;;;;;;;28.52;13.02;;;;;;;;;;5045056;28;20084;-76
2021/11/04 13:56:33;;;;;;;35.28;17.05;;;;;;;;;;5054637;28;20029;-76
2021/11/04 13:58:59;;;;;;;58.47;27.88;;;;;;;;;;5054466;28;20036;-76
2021/11/04 14:01:25;;;;;;;145.63;65.15;;;;;;;;;;5054662;28;20483;-76
2021/11/04 14:04:12;;;;;;;158.35;74.35;;;;;;;;;;5053878;28;20037;-76
2021/11/04 14:06:45;;;;;;;120.63;56.38;;;;;;;;;;5054292;28;20057;-76
2021/11/04 14:09:12;;;;;;;115.10;53.95;;;;;;;;;;5054819;28;20469;-78
2021/11/04 14:11:38;;;;;;;137.02;51.00;;;;;;;;;;5053007;28;20215;-78
2021/11/04 14:14:11;;;;;;;91.45;36.15;;;;;;;;;;5047898;28;20035;-77
2021/11/04 14:16:39;;;;;;;163.38;70.07;;;;;;;;;;5053333;28;20025;-77
2021/11/04 14:19:07;;;;;;;83.78;33.58;;;;;;;;;;5053174;28;20033;-77
2021/11/04 14:21:34;;;;;;;87.63;32.30;;;;;;;;;;5050241;28;20017;-77
2021/11/04 14:24:01;;;;;;;60.00;25.23;;;;;;;;;;5054401;28;20104;-77
2021/11/04 14:26:31;;;;;;;29.42;13.68;;;;;;;;;;5053336;28;20045;-77
2021/11/04 14:28:57;;;;;;;37.10;16.35;;;;;;;;;;5052572;28;20422;-78
2021/11/04 14:31:25;;;;;;;30.15;11.07;;;;;;;;;;5050127;28;20033;-77
2021/11/04 14:33:51;;;;;;;20.38;9.30;;;;;;;;;;5053079;28;20028;-78
2021/11/04 14:36:17;;;;;;;30.77;13.55;;;;;;;;;;5054056;28;20029;-77
2021/11/04 14:38:43;;;;;;;20.48;8.82;;;;;;;;;;5053684;28;20087;-77
2021/11/04 14:41:09;;;;;;;20.92;8.63;;;;;;;;;;5053754;28;20037;-77
2021/11/04 14:43:35;;;;;;;26.80;9.85;;;;;;;;;;5053470;28;20032;-77
2021/11/04 14:46:01;;;;;;;20.00;9.95;;;;;;;;;;5052781;28;20040;-77
2021/11/04 14:48:27;;;;;;;21.25;9.63;;;;;;;;;;5051790;28;20021;-76
2021/11/04 14:50:54;;;;;;;26.15;10.63;;;;;;;;;;5049657;28;20033;-76
2021/11/04 14:53:20;;;;;;;18.25;5.38;;;;;;;;;;5052414;28;20047;-77
2021/11/04 14:55:46;;;;;;;14.98;5.32;;;;;;;;;;5053308;28;20055;-78
2021/11/04 14:58:12;;;;;;;17.35;6.65;;;;;;;;;;5049079;28;20028;-77
2021/11/04 15:00:41;;;;;;;20.30;7.57;;;;;;;;;;5053208;28;20025;-77
2021/11/04 15:03:08;;;;;;;20.13;10.80;;;;;;;;;;5051715;28;20437;-77
2021/11/04 15:05:35;;;;;;;21.30;8.95;;;;;;;;;;5052985;28;20076;-77